createdAt,value
2023-03-31T00:02:54.444Z,7.97
2023-03-31T00:06:01.567Z,9.95
2023-03-31T00:09:11.880Z,11.30
2023-03-31T00:12:16.969Z,8.35
2023-03-31T00:15:19.948Z,9.13
2023-03-31T00:18:23.143Z,9.20
2023-03-31T00:21:29.203Z,7.65
2023-03-31T00:24:33.522Z,10.32
2023-03-31T00:27:36.612Z,19.92
2023-03-31T00:30:39.907Z,12.50
2023-03-31T00:33:42.999Z,7.43
2023-03-31T00:36:48.749Z,7.70
2023-03-31T00:39:51.843Z,8.15
2023-03-31T00:42:54.729Z,7.95
2023-03-31T00:46:18.183Z,7.97
2023-03-31T00:49:34.515Z,6.78
2023-03-31T00:52:37.891Z,5.63
2023-03-31T00:55:53.290Z,5.10
2023-03-31T00:59:00.665Z,4.90
2023-03-31T01:02:04.984Z,4.40
2023-03-31T01:05:09.917Z,4.30
2023-03-31T01:08:13.930Z,4.22
2023-03-31T01:11:22.541Z,4.05
2023-03-31T01:14:26.052Z,4.40
2023-03-31T01:17:29.363Z,4.38
2023-03-31T01:20:44.624Z,4.38
2023-03-31T01:24:08.822Z,4.50
2023-03-31T01:27:32.382Z,4.50
2023-03-31T01:30:51.383Z,4.10
2023-03-31T01:34:32.023Z,4.75
2023-03-31T01:37:51.594Z,5.10
2023-03-31T01:41:25.405Z,4.67
2023-03-31T01:44:40.169Z,4.78
2023-03-31T01:48:08.680Z,4.93
2023-03-31T01:51:34.786Z,5.50
2023-03-31T01:54:40.744Z,5.00
2023-03-31T01:57:57.863Z,5.15
2023-03-31T02:01:13.790Z,4.75
2023-03-31T02:04:33.742Z,4.80
2023-03-31T02:07:53.230Z,5.70
2023-03-31T02:10:58.048Z,5.47
2023-03-31T02:14:02.496Z,5.88
2023-03-31T02:17:08.745Z,5.15
2023-03-31T02:20:15.821Z,5.57
2023-03-31T02:23:23.007Z,5.30
2023-03-31T02:26:34.597Z,5.55
2023-03-31T02:29:38.195Z,5.43
2023-03-31T02:32:43.674Z,5.60
2023-03-31T02:35:46.896Z,5.30
2023-03-31T02:39:06.627Z,5.35
2023-03-31T02:42:10.531Z,5.60
2023-03-31T02:45:49.759Z,5.65
2023-03-31T02:48:57.674Z,5.28
2023-03-31T02:52:30.767Z,5.53
2023-03-31T02:56:36.529Z,5.80
2023-03-31T03:00:09.932Z,5.18
2023-03-31T03:03:31.269Z,5.43
2023-03-31T03:06:42.941Z,5.50
2023-03-31T03:09:46.241Z,5.75
2023-03-31T03:13:15.749Z,5.30
2023-03-31T03:16:29.603Z,5.28
2023-03-31T03:19:32.577Z,5.30
2023-03-31T03:22:36.713Z,5.18
2023-03-31T03:25:39.485Z,5.30
2023-03-31T03:28:42.670Z,5.50
2023-03-31T03:31:45.761Z,6.07
2023-03-31T03:34:48.749Z,5.38
2023-03-31T03:37:51.942Z,5.38
2023-03-31T03:40:54.846Z,5.38
2023-03-31T03:43:58.016Z,6.90
2023-03-31T03:47:01.122Z,6.32
2023-03-31T03:50:05.057Z,33.28
2023-03-31T03:53:08.740Z,5.88
2023-03-31T03:56:12.022Z,6.20
2023-03-31T03:59:15.111Z,6.03
2023-03-31T04:02:17.923Z,5.53
2023-03-31T04:05:21.007Z,5.35
2023-03-31T04:08:24.995Z,5.68
2023-03-31T04:11:28.399Z,5.25
2023-03-31T04:14:31.587Z,5.60
2023-03-31T04:17:35.299Z,5.35
2023-03-31T04:20:38.895Z,5.78
2023-03-31T04:23:46.990Z,6.53
2023-03-31T04:26:51.272Z,6.95
2023-03-31T04:29:57.484Z,6.43
2023-03-31T04:33:04.626Z,6.95
2023-03-31T04:36:20.575Z,6.35
2023-03-31T04:39:27.228Z,7.03
2023-03-31T04:42:30.430Z,6.57
2023-03-31T04:45:33.471Z,6.93
2023-03-31T04:48:36.730Z,6.68
2023-03-31T04:51:39.804Z,7.20
2023-03-31T04:54:42.898Z,7.80
2023-03-31T04:57:46.193Z,8.38
2023-03-31T05:00:49.384Z,8.48
2023-03-31T05:03:52.476Z,7.15
2023-03-31T05:06:55.876Z,8.30
2023-03-31T05:09:59.084Z,7.43
2023-03-31T05:13:02.257Z,6.85
2023-03-31T05:16:10.233Z,6.95
2023-03-31T05:19:13.568Z,7.80
2023-03-31T05:22:21.166Z,6.75
2023-03-31T05:25:24.374Z,7.78
2023-03-31T05:28:27.552Z,7.40
2023-03-31T05:31:30.955Z,12.25
2023-03-31T05:34:34.143Z,8.82
2023-03-31T05:37:37.647Z,9.73
2023-03-31T05:40:40.835Z,8.73
2023-03-31T05:43:44.336Z,7.18
2023-03-31T05:46:47.524Z,6.93
2023-03-31T05:49:52.353Z,5.80
2023-03-31T05:52:55.653Z,5.68
2023-03-31T05:56:04.123Z,5.75
2023-03-31T05:59:07.368Z,5.37
2023-03-31T06:02:14.087Z,5.38
2023-03-31T06:05:17.033Z,5.18
2023-03-31T06:08:20.329Z,4.93
2023-03-31T06:11:23.723Z,5.00
2023-03-31T06:14:28.468Z,8.48
2023-03-31T06:17:31.650Z,4.35
2023-03-31T06:20:34.942Z,6.50
2023-03-31T06:23:38.247Z,5.97
2023-03-31T06:26:41.218Z,5.88
2023-03-31T06:29:44.696Z,9.88
2023-03-31T06:32:47.743Z,3.30
2023-03-31T06:35:51.235Z,3.70
2023-03-31T06:38:55.456Z,3.25
2023-03-31T06:41:58.321Z,3.63
2023-03-31T06:45:01.304Z,3.75
2023-03-31T06:48:04.523Z,4.30
2023-03-31T06:51:08.714Z,3.55
2023-03-31T06:54:12.022Z,3.00
2023-03-31T06:57:15.229Z,3.40
2023-03-31T07:00:21.445Z,3.40
2023-03-31T07:03:26.506Z,2.50
2023-03-31T07:06:32.473Z,2.30
2023-03-31T07:09:35.869Z,2.67
2023-03-31T07:12:38.856Z,2.70
2023-03-31T07:15:42.043Z,2.90
2023-03-31T07:18:45.759Z,2.75
2023-03-31T07:21:48.948Z,2.10
2023-03-31T07:24:51.836Z,2.22
2023-03-31T07:27:54.922Z,2.50
2023-03-31T07:30:58.115Z,2.60
2023-03-31T07:34:03.456Z,2.15
2023-03-31T07:37:06.865Z,1.98
2023-03-31T07:40:12.829Z,2.80
2023-03-31T07:43:16.010Z,2.20
2023-03-31T07:46:25.178Z,2.40
2023-03-31T07:52:31.321Z,2.22
2023-03-31T07:55:34.522Z,2.08
2023-03-31T07:58:37.711Z,2.20
2023-03-31T08:01:41.464Z,2.08
2023-03-31T08:04:46.254Z,2.28
2023-03-31T08:07:51.079Z,2.25
2023-03-31T08:10:54.483Z,2.20
2023-03-31T08:13:57.572Z,2.00
2023-03-31T08:17:00.782Z,2.10
2023-03-31T08:20:08.314Z,2.00
2023-03-31T08:23:12.489Z,2.00
2023-03-31T08:26:22.227Z,2.40
2023-03-31T08:29:25.219Z,2.15
2023-03-31T08:32:28.320Z,2.10
2023-03-31T08:35:31.508Z,2.28
2023-03-31T08:38:35.721Z,2.67
2023-03-31T08:42:00.334Z,2.47
2023-03-31T08:45:19.287Z,2.30
2023-03-31T08:48:31.178Z,2.28
2023-03-31T08:51:39.194Z,2.65
2023-03-31T08:54:49.958Z,2.67
2023-03-31T08:58:34.224Z,2.42
2023-03-31T09:01:57.002Z,2.95
2023-03-31T09:05:07.841Z,2.53
2023-03-31T09:08:25.893Z,2.35
2023-03-31T09:11:46.793Z,2.80
2023-03-31T09:15:05.666Z,2.70
2023-03-31T09:18:25.648Z,2.78
2023-03-31T09:21:43.788Z,2.65
2023-03-31T09:25:21.320Z,2.75
2023-03-31T09:28:37.905Z,3.25
2023-03-31T09:31:44.453Z,5.13
2023-03-31T09:34:52.684Z,3.45
2023-03-31T09:37:55.571Z,2.72
2023-03-31T09:41:00.813Z,2.55
2023-03-31T09:44:04.316Z,2.33
2023-03-31T09:47:21.331Z,2.35
2023-03-31T09:50:25.120Z,2.60
2023-03-31T09:53:51.685Z,2.63
2023-03-31T09:56:54.815Z,2.80
2023-03-31T10:00:14.974Z,2.90
2023-03-31T10:03:18.699Z,2.40
2023-03-31T10:06:23.828Z,2.80
2023-03-31T10:09:39.196Z,2.42
2023-03-31T10:12:50.684Z,2.92
2023-03-31T10:15:55.794Z,2.63
2023-03-31T10:19:23.016Z,2.58
2023-03-31T10:22:33.241Z,3.00
2023-03-31T10:25:36.328Z,2.97
2023-03-31T10:28:40.978Z,2.60
2023-03-31T10:31:44.171Z,2.60
2023-03-31T10:34:47.339Z,2.80
2023-03-31T10:37:55.449Z,2.22
2023-03-31T10:41:00.621Z,2.65
2023-03-31T10:44:05.210Z,2.60
2023-03-31T10:47:22.264Z,2.80
2023-03-31T10:50:34.635Z,2.60
2023-03-31T10:53:46.738Z,2.50
2023-03-31T10:56:56.966Z,2.28
2023-03-31T11:00:31.428Z,2.70
2023-03-31T11:03:42.954Z,2.75
2023-03-31T11:06:56.864Z,2.72
2023-03-31T11:10:33.641Z,2.25
2023-03-31T11:14:01.214Z,2.67
2023-03-31T11:17:14.803Z,2.78
2023-03-31T11:20:24.079Z,2.72
2023-03-31T11:23:47.243Z,2.67
2023-03-31T11:26:50.440Z,2.40
2023-03-31T11:30:06.739Z,2.60
2023-03-31T11:33:35.947Z,2.78
2023-03-31T11:37:24.914Z,2.72
2023-03-31T11:40:53.092Z,2.60
2023-03-31T11:44:05.041Z,2.45
2023-03-31T11:47:13.736Z,2.50
2023-03-31T11:50:22.453Z,2.90
2023-03-31T11:53:31.878Z,2.70
2023-03-31T11:59:42.162Z,2.35
2023-03-31T12:03:12.157Z,2.50
2023-03-31T12:06:21.883Z,2.53
2023-03-31T12:09:30.856Z,2.55
2023-03-31T12:12:39.890Z,2.38
2023-03-31T12:15:51.842Z,2.38
2023-03-31T12:19:23.347Z,2.38
2023-03-31T12:22:48.770Z,2.20
2023-03-31T12:26:03.992Z,2.50
2023-03-31T12:29:26.997Z,2.28
2023-03-31T12:32:56.640Z,2.30
2023-03-31T12:36:02.519Z,2.40
2023-03-31T12:39:27.880Z,2.70
2023-03-31T12:42:46.240Z,2.42
2023-03-31T12:46:18.314Z,2.50
2023-03-31T12:49:35.631Z,2.40
2023-03-31T12:53:11.388Z,3.05
2023-03-31T12:56:14.484Z,2.13
2023-03-31T12:59:48.503Z,2.38
2023-03-31T13:03:15.159Z,2.30
2023-03-31T13:06:29.935Z,2.20
2023-03-31T13:09:43.751Z,2.40
2023-03-31T13:13:04.558Z,2.20
2023-03-31T13:16:07.647Z,2.38
2023-03-31T13:19:27.840Z,2.00
2023-03-31T13:22:41.170Z,2.10
2023-03-31T13:25:54.298Z,2.17
2023-03-31T13:29:22.476Z,2.47
2023-03-31T13:32:27.179Z,2.47
2023-03-31T13:35:34.410Z,2.22
2023-03-31T13:39:12.369Z,2.33
2023-03-31T13:42:42.323Z,2.63
2023-03-31T13:45:52.882Z,2.20
2023-03-31T13:49:23.222Z,2.33
2023-03-31T13:52:58.362Z,2.40
2023-03-31T13:56:43.383Z,2.58
2023-03-31T14:00:14.663Z,1.98
2023-03-31T14:03:47.747Z,2.10
2023-03-31T14:06:57.430Z,2.00
2023-03-31T14:13:25.116Z,2.20
2023-03-31T14:16:29.993Z,2.30
2023-03-31T14:19:50.961Z,2.53
2023-03-31T14:23:15.862Z,2.17
2023-03-31T14:27:03.193Z,2.17
2023-03-31T14:30:13.257Z,2.30
2023-03-31T14:33:40.204Z,2.90
2023-03-31T14:37:02.509Z,3.13
2023-03-31T14:40:06.402Z,2.72
2023-03-31T14:43:19.685Z,3.33
2023-03-31T14:46:23.299Z,3.03
2023-03-31T14:49:38.487Z,3.63
2023-03-31T14:52:52.619Z,3.00
2023-03-31T14:56:08.815Z,2.80
2023-03-31T14:59:14.671Z,2.78
2023-03-31T15:02:24.448Z,2.85
2023-03-31T15:05:33.645Z,2.80
2023-03-31T15:08:37.873Z,2.78
2023-03-31T15:11:41.474Z,2.65
2023-03-31T15:14:53.280Z,2.90
2023-03-31T15:17:56.881Z,3.55
2023-03-31T15:20:59.968Z,4.15
2023-03-31T15:24:05.926Z,2.67
2023-03-31T15:27:29.781Z,2.70
2023-03-31T15:30:38.021Z,4.88
2023-03-31T15:33:42.313Z,3.15
2023-03-31T15:36:45.728Z,3.15
2023-03-31T15:39:49.742Z,2.90
2023-03-31T15:43:25.616Z,3.25
2023-03-31T15:46:44.258Z,2.65
2023-03-31T15:49:56.766Z,2.80
2023-03-31T15:53:01.803Z,2.63
2023-03-31T15:56:05.521Z,3.03
2023-03-31T15:59:34.346Z,3.00
2023-03-31T16:02:50.968Z,2.92
2023-03-31T16:05:57.431Z,2.92
2023-03-31T16:09:06.525Z,2.83
2023-03-31T16:12:32.744Z,3.40
2023-03-31T16:15:50.174Z,2.92
2023-03-31T16:19:04.540Z,2.53
2023-03-31T16:22:07.933Z,2.97
2023-03-31T16:25:14.012Z,2.63
2023-03-31T16:28:21.178Z,2.85
2023-03-31T16:31:37.632Z,2.80
2023-03-31T16:34:58.608Z,3.17
2023-03-31T16:38:04.769Z,2.95
2023-03-31T16:41:07.950Z,3.15
2023-03-31T16:44:11.351Z,2.55
2023-03-31T16:47:27.696Z,2.65
2023-03-31T16:50:37.910Z,2.63
2023-03-31T16:53:41.313Z,2.55
2023-03-31T16:56:44.453Z,2.60
2023-03-31T16:59:48.107Z,2.55
2023-03-31T17:02:51.535Z,2.60
2023-03-31T17:05:59.200Z,2.28
2023-03-31T17:09:05.059Z,2.70
2023-03-31T17:12:08.457Z,3.08
2023-03-31T17:15:12.164Z,2.60
2023-03-31T17:18:16.658Z,2.80
2023-03-31T17:21:21.011Z,2.65
2023-03-31T17:24:24.303Z,2.55
2023-03-31T17:27:28.894Z,2.50
2023-03-31T17:30:34.890Z,2.55
2023-03-31T17:33:38.696Z,3.00
2023-03-31T17:36:44.955Z,2.70
2023-03-31T17:39:48.769Z,2.50
2023-03-31T17:42:52.167Z,2.90
2023-03-31T17:46:05.551Z,2.95
2023-03-31T17:49:10.331Z,2.75
2023-03-31T17:52:14.447Z,2.80
2023-03-31T17:55:18.765Z,2.70
2023-03-31T17:58:23.476Z,2.75
2023-03-31T18:01:27.989Z,2.83
2023-03-31T18:04:32.061Z,2.60
2023-03-31T18:07:36.978Z,2.95
2023-03-31T18:10:41.291Z,2.75
2023-03-31T18:13:45.095Z,3.20
2023-03-31T18:16:48.695Z,2.90
2023-03-31T18:19:52.812Z,2.80
2023-03-31T18:22:57.338Z,2.22
2023-03-31T18:26:01.922Z,2.50
2023-03-31T18:29:05.671Z,2.33
2023-03-31T18:32:10.301Z,2.28
2023-03-31T18:35:13.935Z,2.47
2023-03-31T18:38:20.779Z,2.28
2023-03-31T18:41:25.507Z,2.20
2023-03-31T18:44:29.313Z,2.20
2023-03-31T18:47:33.168Z,2.22
2023-03-31T18:50:37.749Z,2.03
2023-03-31T18:53:42.170Z,2.30
2023-03-31T18:56:46.752Z,1.85
2023-03-31T18:59:50.994Z,2.25
2023-03-31T19:02:55.521Z,1.77
2023-03-31T19:06:05.603Z,2.33
2023-03-31T19:09:09.519Z,2.00
2023-03-31T19:12:13.114Z,2.72
2023-03-31T19:15:17.514Z,2.88
2023-03-31T19:18:21.976Z,2.20
2023-03-31T19:21:26.293Z,3.22
2023-03-31T19:24:30.805Z,3.80
2023-03-31T19:27:34.828Z,3.63
2023-03-31T19:30:38.730Z,3.55
2023-03-31T19:33:43.059Z,4.30
2023-03-31T19:36:47.907Z,4.65
2023-03-31T19:39:54.760Z,5.18
2023-03-31T19:42:58.366Z,6.00
2023-03-31T19:46:02.187Z,5.40
2023-03-31T19:49:06.284Z,4.70
2023-03-31T19:52:10.284Z,4.75
2023-03-31T19:55:14.019Z,4.40
2023-03-31T19:58:18.019Z,4.00
2023-03-31T20:01:25.495Z,4.25
2023-03-31T20:04:29.672Z,5.28
2023-03-31T20:07:33.231Z,5.35
2023-03-31T20:10:37.370Z,4.90
2023-03-31T20:13:43.404Z,4.80
2023-03-31T20:16:49.672Z,5.32
2023-03-31T20:19:54.808Z,5.95
2023-03-31T20:23:00.260Z,2.55
2023-03-31T20:26:04.362Z,2.35
2023-03-31T20:29:09.228Z,3.08
2023-03-31T20:32:12.991Z,1.92
2023-03-31T20:35:16.816Z,1.88
2023-03-31T20:38:20.213Z,1.92
2023-03-31T20:41:26.891Z,1.75
2023-03-31T20:44:30.390Z,1.60
2023-03-31T20:47:35.459Z,1.50
2023-03-31T20:50:40.380Z,1.90
2023-03-31T20:53:54.211Z,9.63
2023-03-31T20:56:58.028Z,4.70
2023-03-31T21:00:02.739Z,2.63
2023-03-31T21:03:06.100Z,4.93
2023-03-31T21:06:12.180Z,10.55
2023-03-31T21:09:16.840Z,7.20
2023-03-31T21:12:20.331Z,10.27
2023-03-31T21:15:23.212Z,6.80
2023-03-31T21:18:28.071Z,5.35
2023-03-31T21:21:31.962Z,2.00
2023-03-31T21:24:35.562Z,2.22
2023-03-31T21:27:38.658Z,2.70
2023-03-31T21:30:48.907Z,2.70
2023-03-31T21:33:53.140Z,4.75
2023-03-31T21:36:55.913Z,3.03
2023-03-31T21:39:59.414Z,2.53
2023-03-31T21:43:02.824Z,2.10
2023-03-31T21:46:07.071Z,2.00
2023-03-31T21:49:10.225Z,1.70
2023-03-31T21:52:13.521Z,2.00
2023-03-31T21:55:16.709Z,2.13
2023-03-31T21:58:19.802Z,2.08
2023-03-31T22:01:23.821Z,1.90
2023-03-31T22:04:30.063Z,2.05
2023-03-31T22:07:34.704Z,2.00
2023-03-31T22:10:38.109Z,2.00
2023-03-31T22:13:41.716Z,2.80
2023-03-31T22:16:44.597Z,2.17
2023-03-31T22:19:48.402Z,2.50
2023-03-31T22:22:51.390Z,3.00
2023-03-31T22:25:54.386Z,3.72
2023-03-31T22:28:57.879Z,3.10
2023-03-31T22:32:01.298Z,4.55
2023-03-31T22:35:04.362Z,2.67
2023-03-31T22:38:08.623Z,4.90
2023-03-31T22:41:12.185Z,2.45
2023-03-31T22:44:15.888Z,1.77
2023-03-31T22:47:18.986Z,2.08
2023-03-31T22:50:22.697Z,2.83
2023-03-31T22:53:26.187Z,2.50
2023-03-31T22:56:29.307Z,4.63
2023-03-31T22:59:32.363Z,3.20
2023-03-31T23:02:36.095Z,2.45
2023-03-31T23:05:39.675Z,2.30
2023-03-31T23:08:44.099Z,2.35
2023-03-31T23:11:47.701Z,2.25
2023-03-31T23:14:50.796Z,2.15
2023-03-31T23:17:54.162Z,2.28
2023-03-31T23:20:57.803Z,2.08
2023-03-31T23:24:03.041Z,2.50
2023-03-31T23:27:06.643Z,2.15
2023-03-31T23:30:10.957Z,2.10
2023-03-31T23:33:14.152Z,2.10
2023-03-31T23:36:18.699Z,2.35
2023-03-31T23:39:22.484Z,1.80
2023-03-31T23:42:25.980Z,1.80
2023-03-31T23:45:29.140Z,1.92
2023-03-31T23:48:32.569Z,4.70
2023-03-31T23:51:35.556Z,2.30
2023-03-31T23:54:39.059Z,6.97
2023-03-31T23:57:42.150Z,2.67
